createdAt,value
2022-09-04T00:02:30.744Z,4.10
2022-09-04T00:05:26.249Z,2.90
2022-09-04T00:07:59.479Z,2.10
2022-09-04T00:10:42.971Z,2.20
2022-09-04T00:13:23.525Z,2.50
2022-09-04T00:16:12.677Z,2.57
2022-09-04T00:19:02.522Z,4.47
2022-09-04T00:21:43.681Z,3.10
2022-09-04T00:24:18.134Z,3.00
2022-09-04T00:26:57.100Z,2.53
2022-09-04T00:29:38.339Z,2.93
2022-09-04T00:32:38.571Z,2.37
2022-09-04T00:35:31.974Z,2.47
2022-09-04T00:38:03.666Z,2.50
2022-09-04T00:40:35.641Z,1.83
2022-09-04T00:43:27.270Z,3.27
2022-09-04T00:46:05.104Z,2.47
2022-09-04T00:48:42.107Z,2.73
2022-09-04T00:51:30.743Z,2.27
2022-09-04T00:54:09.282Z,2.60
2022-09-04T00:57:00.577Z,2.37
2022-09-04T00:59:47.263Z,2.13
2022-09-04T01:02:41.069Z,3.07
2022-09-04T01:05:27.824Z,2.23
2022-09-04T01:08:12.250Z,2.73
2022-09-04T01:10:59.445Z,1.97
2022-09-04T01:13:36.619Z,3.60
2022-09-04T01:16:11.469Z,2.37
2022-09-04T01:18:48.070Z,3.37
2022-09-04T01:21:35.658Z,3.10
2022-09-04T01:24:30.743Z,2.10
2022-09-04T01:27:15.563Z,2.60
2022-09-04T01:30:14.999Z,2.20
2022-09-04T01:33:00.103Z,2.83
2022-09-04T01:35:50.767Z,2.03
2022-09-04T01:38:28.178Z,2.67
2022-09-04T01:41:15.372Z,2.13
2022-09-04T01:43:42.705Z,2.00
2022-09-04T01:46:24.519Z,2.05
2022-09-04T01:49:00.595Z,2.38
2022-09-04T01:51:40.839Z,3.80
2022-09-04T01:54:45.056Z,2.80
2022-09-04T01:57:49.312Z,2.30
2022-09-04T02:00:23.079Z,2.17
2022-09-04T02:02:54.074Z,1.77
2022-09-04T02:05:29.243Z,2.60
2022-09-04T02:08:33.051Z,2.53
2022-09-04T02:11:19.000Z,2.60
2022-09-04T02:14:08.603Z,1.63
2022-09-04T02:16:56.895Z,2.73
2022-09-04T02:19:45.299Z,3.67
2022-09-04T02:22:17.186Z,1.80
2022-09-04T02:24:57.059Z,2.37
2022-09-04T02:27:50.645Z,2.10
2022-09-04T02:30:19.505Z,2.43
2022-09-04T02:33:05.978Z,2.53
2022-09-04T02:35:38.422Z,2.17
2022-09-04T02:38:25.056Z,2.63
2022-09-04T02:41:30.863Z,2.83
2022-09-04T02:44:15.121Z,2.83
2022-09-04T02:47:01.772Z,2.23
2022-09-04T02:49:59.142Z,3.43
2022-09-04T02:53:03.370Z,3.90
2022-09-04T02:56:08.852Z,3.00
2022-09-04T02:58:50.105Z,2.17
2022-09-04T03:01:49.745Z,1.93
2022-09-04T03:04:55.320Z,2.40
2022-09-04T03:07:33.459Z,2.80
2022-09-04T03:10:11.808Z,2.20
2022-09-04T03:12:56.370Z,2.10
2022-09-04T03:15:38.243Z,3.17
2022-09-04T03:18:14.951Z,2.87
2022-09-04T03:20:48.078Z,2.13
2022-09-04T03:23:29.793Z,3.07
2022-09-04T03:26:06.006Z,2.97
2022-09-04T03:29:01.116Z,3.67
2022-09-04T03:32:15.890Z,3.37
2022-09-04T03:35:02.039Z,3.67
2022-09-04T03:37:37.350Z,4.15
2022-09-04T03:40:32.903Z,2.63
2022-09-04T03:43:14.454Z,7.18
2022-09-04T03:46:10.197Z,4.53
2022-09-04T03:48:56.319Z,5.60
2022-09-04T03:51:41.502Z,3.60
2022-09-04T03:54:17.064Z,2.25
2022-09-04T03:57:04.839Z,5.70
2022-09-04T03:59:58.842Z,3.42
2022-09-04T04:02:27.813Z,2.92
2022-09-04T04:05:00.230Z,4.20
2022-09-04T04:07:51.270Z,4.60
2022-09-04T04:10:45.175Z,5.15
2022-09-04T04:13:31.342Z,7.15
2022-09-04T04:16:25.491Z,6.93
2022-09-04T04:19:03.730Z,6.30
2022-09-04T04:21:57.639Z,6.23
2022-09-04T04:24:32.806Z,7.07
2022-09-04T04:27:37.443Z,4.40
2022-09-04T04:30:16.577Z,4.00
2022-09-04T04:32:43.838Z,6.13
2022-09-04T04:35:13.035Z,7.80
2022-09-04T04:38:00.520Z,7.85
2022-09-04T04:40:32.224Z,7.90
2022-09-04T04:43:13.917Z,6.72
2022-09-04T04:46:03.170Z,7.93
2022-09-04T04:48:52.410Z,12.65
2022-09-04T04:51:45.186Z,8.67
2022-09-04T04:54:26.453Z,8.47
2022-09-04T04:57:14.790Z,8.77
2022-09-04T04:59:56.157Z,8.30
2022-09-04T05:02:30.913Z,9.85
2022-09-04T05:05:17.846Z,14.03
2022-09-04T05:07:52.293Z,8.40
2022-09-04T05:10:25.206Z,8.23
2022-09-04T05:12:59.337Z,11.03
2022-09-04T05:15:53.008Z,10.27
2022-09-04T05:18:42.672Z,9.43
2022-09-04T05:21:22.662Z,8.37
2022-09-04T05:23:59.394Z,9.00
2022-09-04T05:26:46.579Z,10.67
2022-09-04T05:29:21.058Z,8.95
2022-09-04T05:32:05.641Z,12.30
2022-09-04T05:34:49.136Z,8.13
2022-09-04T05:37:19.439Z,8.23
2022-09-04T05:40:10.814Z,7.03
2022-09-04T05:43:14.143Z,6.63
2022-09-04T05:46:05.203Z,5.90
2022-09-04T05:48:37.586Z,9.32
2022-09-04T05:51:28.881Z,8.40
2022-09-04T05:54:14.211Z,11.70
2022-09-04T05:57:04.752Z,6.57
2022-09-04T06:00:04.123Z,8.60
2022-09-04T06:02:45.314Z,10.87
2022-09-04T06:05:22.264Z,5.73
2022-09-04T06:07:55.567Z,9.07
2022-09-04T06:10:52.878Z,7.30
2022-09-04T06:13:37.282Z,6.32
2022-09-04T06:16:18.849Z,8.75
2022-09-04T06:18:57.089Z,7.57
2022-09-04T06:21:30.614Z,11.90
2022-09-04T06:24:24.802Z,9.32
2022-09-04T06:27:09.120Z,6.95
2022-09-04T06:30:03.485Z,8.13
2022-09-04T06:32:49.145Z,6.38
2022-09-04T06:35:32.939Z,5.57
2022-09-04T06:38:26.015Z,7.82
2022-09-04T06:41:25.122Z,8.25
2022-09-04T06:44:01.158Z,6.45
2022-09-04T06:46:35.792Z,8.93
2022-09-04T06:49:22.302Z,3.83
2022-09-04T06:52:00.659Z,4.82
2022-09-04T06:54:59.158Z,5.30
2022-09-04T06:57:49.339Z,4.13
2022-09-04T07:00:17.554Z,4.15
2022-09-04T07:02:56.427Z,3.97
2022-09-04T07:05:22.899Z,4.55
2022-09-04T07:08:14.314Z,5.32
2022-09-04T07:10:45.751Z,5.53
2022-09-04T07:13:25.001Z,5.80
2022-09-04T07:16:25.751Z,5.25
2022-09-04T07:19:15.818Z,5.80
2022-09-04T07:22:17.853Z,4.70
2022-09-04T07:24:56.862Z,2.63
2022-09-04T07:27:45.007Z,4.70
2022-09-04T07:30:15.634Z,5.13
2022-09-04T07:33:19.891Z,3.58
2022-09-04T07:36:02.366Z,2.72
2022-09-04T07:38:58.723Z,3.20
2022-09-04T07:41:46.185Z,3.78
2022-09-04T07:44:34.226Z,4.82
2022-09-04T07:47:14.053Z,6.18
2022-09-04T07:49:56.291Z,5.10
2022-09-04T07:52:39.252Z,7.60
2022-09-04T07:55:24.843Z,5.45
2022-09-04T07:57:58.819Z,5.15
2022-09-04T08:00:26.696Z,2.50
2022-09-04T08:03:13.448Z,3.90
2022-09-04T08:05:47.608Z,5.45
2022-09-04T08:08:35.496Z,4.35
2022-09-04T08:11:12.102Z,5.07
2022-09-04T08:14:01.906Z,7.90
2022-09-04T08:17:00.509Z,3.63
2022-09-04T08:19:48.679Z,3.78
2022-09-04T08:22:28.415Z,4.18
2022-09-04T08:25:07.003Z,6.60
2022-09-04T08:28:00.524Z,5.47
2022-09-04T08:30:33.062Z,6.15
2022-09-04T08:33:13.823Z,4.95
2022-09-04T08:36:04.936Z,3.72
2022-09-04T08:39:11.714Z,4.60
2022-09-04T08:42:05.971Z,4.88
2022-09-04T08:45:00.874Z,2.83
2022-09-04T08:47:51.566Z,3.97
2022-09-04T08:50:51.287Z,4.05
2022-09-04T08:53:45.139Z,4.53
2022-09-04T08:56:18.446Z,4.70
2022-09-04T08:59:17.658Z,6.03
2022-09-04T09:02:21.900Z,5.78
2022-09-04T09:05:25.695Z,4.53
2022-09-04T09:08:06.784Z,6.18
2022-09-04T09:10:36.750Z,5.25
2022-09-04T09:13:23.691Z,4.47
2022-09-04T09:16:14.958Z,6.03
2022-09-04T09:19:09.078Z,7.57
2022-09-04T09:21:53.798Z,5.50
2022-09-04T09:24:46.686Z,6.32
2022-09-04T09:27:42.770Z,7.03
2022-09-04T09:30:13.725Z,6.50
2022-09-04T09:33:04.502Z,5.78
2022-09-04T09:35:42.046Z,3.72
2022-09-04T09:38:36.465Z,6.22
2022-09-04T09:41:12.422Z,5.35
2022-09-04T09:44:28.241Z,4.38
2022-09-04T09:47:19.294Z,4.82
2022-09-04T09:50:22.890Z,6.35
2022-09-04T09:53:13.347Z,5.10
2022-09-04T09:56:07.210Z,4.38
2022-09-04T09:59:02.149Z,4.43
2022-09-04T10:01:28.598Z,5.20
2022-09-04T10:04:21.471Z,4.05
2022-09-04T10:06:57.426Z,4.22
2022-09-04T10:09:29.573Z,3.85
2022-09-04T10:12:01.885Z,3.83
2022-09-04T10:15:18.963Z,4.63
2022-09-04T10:18:02.710Z,8.23
2022-09-04T10:21:12.038Z,4.65
2022-09-04T10:24:01.067Z,5.28
2022-09-04T10:26:42.358Z,4.32
2022-09-04T10:29:26.475Z,4.28
2022-09-04T10:32:37.742Z,5.85
2022-09-04T10:35:16.398Z,3.50
2022-09-04T10:37:54.854Z,4.43
2022-09-04T10:40:50.646Z,3.45
2022-09-04T10:43:47.686Z,2.53
2022-09-04T10:46:23.229Z,3.40
2022-09-04T10:48:58.953Z,4.03
2022-09-04T10:52:06.651Z,2.45
2022-09-04T10:54:43.664Z,4.15
2022-09-04T10:57:37.206Z,3.40
2022-09-04T11:00:04.594Z,3.28
2022-09-04T11:02:46.961Z,3.13
2022-09-04T11:05:20.331Z,2.60
2022-09-04T11:08:06.790Z,2.58
2022-09-04T11:10:48.334Z,2.60
2022-09-04T11:13:39.591Z,3.15
2022-09-04T11:16:27.902Z,3.63
2022-09-04T11:19:15.469Z,3.65
2022-09-04T11:21:58.849Z,3.60
2022-09-04T11:24:47.148Z,4.00
2022-09-04T11:27:49.199Z,3.70
2022-09-04T11:30:28.711Z,3.80
2022-09-04T11:33:24.842Z,5.68
2022-09-04T11:36:05.830Z,4.90
2022-09-04T11:38:47.097Z,5.03
2022-09-04T11:41:36.467Z,4.57
2022-09-04T11:44:25.663Z,3.38
2022-09-04T11:47:16.945Z,3.45
2022-09-04T11:50:09.494Z,4.63
2022-09-04T11:52:46.657Z,4.78
2022-09-04T11:55:25.162Z,4.97
2022-09-04T11:58:09.952Z,7.80
2022-09-04T12:00:45.626Z,5.55
2022-09-04T12:03:30.582Z,5.15
2022-09-04T12:06:10.054Z,5.38
2022-09-04T12:09:01.323Z,5.63
2022-09-04T12:11:36.669Z,4.75
2022-09-04T12:14:28.895Z,5.30
2022-09-04T12:17:25.557Z,4.82
2022-09-04T12:20:23.970Z,4.70
2022-09-04T12:23:29.587Z,5.53
2022-09-04T12:26:07.049Z,4.53
2022-09-04T12:28:59.663Z,5.85
2022-09-04T12:31:35.054Z,5.43
2022-09-04T12:34:28.279Z,4.15
2022-09-04T12:37:20.523Z,4.97
2022-09-04T12:40:19.586Z,5.30
2022-09-04T12:43:13.413Z,5.50
2022-09-04T12:45:52.092Z,5.07
2022-09-04T12:49:16.943Z,4.30
2022-09-04T12:52:19.360Z,3.72
2022-09-04T12:55:15.770Z,3.35
2022-09-04T12:57:55.639Z,4.60
2022-09-04T13:00:42.026Z,3.33
2022-09-04T13:03:45.839Z,3.72
2022-09-04T13:06:20.515Z,3.30
2022-09-04T13:08:53.226Z,3.03
2022-09-04T13:11:53.782Z,3.85
2022-09-04T13:14:52.782Z,3.30
2022-09-04T13:17:43.897Z,2.72
2022-09-04T13:20:42.678Z,3.65
2022-09-04T13:23:36.951Z,3.75
2022-09-04T13:26:18.367Z,2.80
2022-09-04T13:29:17.228Z,2.75
2022-09-04T13:31:53.013Z,2.67
2022-09-04T13:34:23.966Z,2.65
2022-09-04T13:37:10.523Z,3.15
2022-09-04T13:40:03.047Z,3.78
2022-09-04T13:43:07.165Z,3.05
2022-09-04T13:45:39.308Z,2.42
2022-09-04T13:48:08.594Z,2.75
2022-09-04T13:50:55.595Z,3.28
2022-09-04T13:53:33.430Z,2.00
2022-09-04T13:56:06.049Z,2.45
2022-09-04T13:58:38.249Z,2.50
2022-09-04T14:01:09.685Z,2.42
2022-09-04T14:03:39.397Z,3.00
2022-09-04T14:06:09.894Z,2.55
2022-09-04T14:08:37.655Z,3.97
2022-09-04T14:11:39.234Z,2.13
2022-09-04T14:14:11.988Z,1.95
2022-09-04T14:16:43.800Z,2.20
2022-09-04T14:19:24.387Z,2.15
2022-09-04T14:21:56.719Z,2.50
2022-09-04T14:24:45.300Z,2.17
2022-09-04T14:27:31.419Z,2.65
2022-09-04T14:30:01.842Z,2.30
2022-09-04T14:32:47.234Z,2.55
2022-09-04T14:35:22.517Z,2.40
2022-09-04T14:38:30.170Z,2.70
2022-09-04T14:41:13.197Z,2.20
2022-09-04T14:44:07.322Z,3.40
2022-09-04T14:46:46.500Z,2.40
2022-09-04T14:49:21.305Z,2.35
2022-09-04T14:51:50.186Z,2.45
2022-09-04T14:54:23.661Z,2.78
2022-09-04T14:56:53.152Z,2.03
2022-09-04T14:59:36.872Z,3.25
2022-09-04T15:02:09.327Z,2.53
2022-09-04T15:04:46.578Z,2.83
2022-09-04T15:07:35.144Z,1.90
2022-09-04T15:10:10.385Z,2.10
2022-09-04T15:12:41.450Z,1.80
2022-09-04T15:15:31.490Z,2.10
2022-09-04T15:18:10.487Z,1.83
2022-09-04T15:20:38.874Z,2.40
2022-09-04T15:23:29.331Z,2.38
2022-09-04T15:26:04.047Z,2.78
2022-09-04T15:28:43.694Z,1.70
2022-09-04T15:31:31.935Z,1.98
2022-09-04T15:34:04.915Z,1.70
2022-09-04T15:36:31.415Z,2.03
2022-09-04T15:39:00.179Z,2.00
2022-09-04T15:41:37.207Z,1.70
2022-09-04T15:44:34.518Z,1.40
2022-09-04T15:47:38.755Z,1.52
2022-09-04T15:50:18.106Z,1.75
2022-09-04T15:52:55.486Z,2.35
2022-09-04T15:55:27.595Z,2.35
2022-09-04T15:58:30.077Z,2.30
2022-09-04T16:01:06.042Z,2.67
2022-09-04T16:04:01.177Z,2.08
2022-09-04T16:06:34.476Z,4.95
2022-09-04T16:09:36.369Z,2.22
2022-09-04T16:12:21.566Z,2.25
2022-09-04T16:14:51.902Z,1.80
2022-09-04T16:17:29.277Z,2.22
2022-09-04T16:20:01.295Z,2.28
2022-09-04T16:22:58.450Z,2.08
2022-09-04T16:25:33.775Z,2.00
2022-09-04T16:28:31.132Z,3.55
2022-09-04T16:30:59.868Z,2.00
2022-09-04T16:33:31.073Z,2.63
2022-09-04T16:36:11.315Z,1.92
2022-09-04T16:38:47.203Z,3.15
2022-09-04T16:41:15.765Z,2.42
2022-09-04T16:44:07.899Z,2.88
2022-09-04T16:46:37.340Z,3.55
2022-09-04T16:49:07.490Z,2.55
2022-09-04T16:51:41.204Z,2.65
2022-09-04T16:54:11.157Z,3.90
2022-09-04T16:56:40.448Z,2.40
2022-09-04T16:59:23.119Z,3.20
2022-09-04T17:01:57.119Z,2.28
2022-09-04T17:04:44.139Z,2.38
2022-09-04T17:07:31.014Z,2.42
2022-09-04T17:10:01.668Z,2.97
2022-09-04T17:12:40.151Z,3.08
2022-09-04T17:15:37.484Z,3.90
2022-09-04T17:18:08.715Z,2.25
2022-09-04T17:22:15.600Z,2.75
2022-09-04T17:29:03.496Z,2.50
2022-09-04T17:29:16.211Z,2.63
2022-09-04T17:29:36.261Z,2.83
2022-09-04T17:32:38.294Z,2.90
2022-09-04T17:40:42.426Z,2.90
2022-09-04T17:40:50.437Z,2.85
2022-09-04T17:41:35.845Z,3.55
2022-09-04T17:44:46.161Z,2.70
2022-09-04T17:47:18.515Z,3.30
2022-09-04T17:49:48.573Z,2.78
2022-09-04T17:52:26.898Z,4.05
2022-09-04T17:54:56.009Z,4.55
2022-09-04T17:57:42.691Z,5.30
2022-09-04T18:00:20.272Z,6.75
2022-09-04T18:02:55.233Z,3.25
2022-09-04T18:05:42.551Z,5.40
2022-09-04T18:08:32.612Z,4.38
2022-09-04T18:11:07.150Z,4.03
2022-09-04T18:13:44.500Z,6.05
2022-09-04T18:16:53.155Z,4.15
2022-09-04T18:19:42.564Z,4.57
2022-09-04T18:22:33.155Z,4.35
2022-09-04T18:25:15.930Z,5.72
2022-09-04T18:28:12.393Z,6.70
2022-09-04T18:37:08.434Z,5.03
2022-09-04T18:37:17.021Z,9.02
2022-09-04T18:37:18.216Z,5.68
2022-09-04T18:39:57.560Z,5.47
2022-09-04T18:50:20.183Z,4.93
2022-09-04T18:50:29.800Z,4.80
2022-09-04T18:50:51.993Z,5.88
2022-09-04T18:51:30.517Z,7.20
2022-09-04T18:54:29.464Z,6.38
2022-09-04T18:57:00.951Z,5.47
2022-09-04T18:59:36.604Z,6.63
2022-09-04T19:02:25.444Z,4.40
2022-09-04T19:04:58.800Z,5.47
2022-09-04T19:07:34.286Z,6.90
2022-09-04T19:10:15.711Z,4.75
2022-09-04T19:12:51.130Z,7.32
2022-09-04T19:15:36.617Z,5.97
2022-09-04T19:18:13.979Z,8.90
2022-09-04T19:20:47.409Z,5.05
2022-09-04T19:23:21.723Z,7.97
2022-09-04T19:25:54.761Z,3.90
2022-09-04T19:28:38.658Z,5.10
2022-09-04T19:31:11.051Z,8.07
2022-09-04T19:33:41.360Z,3.92
2022-09-04T19:36:12.567Z,3.65
2022-09-04T19:43:43.467Z,5.68
2022-09-04T19:46:02.489Z,4.15
2022-09-04T19:46:12.705Z,3.92
2022-09-04T19:47:53.954Z,6.85
2022-09-04T19:53:24.424Z,4.57
2022-09-04T19:53:37.828Z,3.80
2022-09-04T19:56:08.407Z,4.85
2022-09-04T19:58:42.053Z,4.57
2022-09-04T20:01:20.411Z,6.68
2022-09-04T20:04:10.950Z,3.90
2022-09-04T20:06:46.595Z,4.22
2022-09-04T20:09:37.019Z,5.35
2022-09-04T20:12:26.402Z,4.50
2022-09-04T20:15:17.960Z,4.57
2022-09-04T20:18:17.702Z,4.47
2022-09-04T20:20:56.151Z,4.18
2022-09-04T20:23:37.088Z,3.70
2022-09-04T20:26:21.719Z,3.47
2022-09-04T20:28:54.410Z,5.53
2022-09-04T20:31:35.538Z,4.60
2022-09-04T20:34:08.195Z,3.63
2022-09-04T20:36:38.364Z,4.10
2022-09-04T20:39:12.669Z,3.90
2022-09-04T20:41:59.057Z,4.03
2022-09-04T20:44:47.624Z,5.03
2022-09-04T20:52:44.283Z,3.60
2022-09-04T20:52:49.775Z,4.28
2022-09-04T20:53:55.767Z,3.60
2022-09-04T20:57:00.994Z,3.65
2022-09-04T21:03:09.430Z,3.58
2022-09-04T21:03:10.361Z,3.55
2022-09-04T21:05:59.855Z,3.20
2022-09-04T21:08:40.682Z,4.65
2022-09-04T21:11:47.195Z,3.25
2022-09-04T21:14:28.642Z,4.35
2022-09-04T21:17:34.677Z,3.00
2022-09-04T21:20:29.286Z,4.88
2022-09-04T21:22:55.603Z,3.50
2022-09-04T21:25:30.529Z,4.05
2022-09-04T21:28:35.406Z,3.40
2022-09-04T21:31:23.859Z,3.10
2022-09-04T21:34:15.475Z,3.78
2022-09-04T21:36:49.418Z,4.10
2022-09-04T21:39:27.376Z,3.85
2022-09-04T21:42:16.696Z,4.22
2022-09-04T21:44:59.141Z,3.00
2022-09-04T21:47:44.782Z,3.67
2022-09-04T21:50:45.363Z,3.85
2022-09-04T21:54:13.057Z,3.53
2022-09-04T22:02:35.688Z,2.95
2022-09-04T22:02:42.950Z,3.10
2022-09-04T22:03:31.661Z,3.42
2022-09-04T22:06:03.890Z,3.97
2022-09-04T22:13:28.748Z,4.00
2022-09-04T22:13:41.777Z,3.70
2022-09-04T22:14:53.771Z,4.55
2022-09-04T22:17:35.246Z,3.97
2022-09-04T22:20:19.971Z,4.07
2022-09-04T22:23:11.243Z,4.63
2022-09-04T22:26:09.070Z,3.35
2022-09-04T22:28:52.053Z,4.55
2022-09-04T22:31:24.801Z,3.75
2022-09-04T22:34:15.369Z,3.75
2022-09-04T22:37:00.535Z,6.15
2022-09-04T22:40:04.974Z,4.13
2022-09-04T22:42:53.215Z,3.40
2022-09-04T22:45:49.110Z,3.38
2022-09-04T22:48:18.501Z,3.33
2022-09-04T22:50:59.814Z,2.97
2022-09-04T22:53:44.618Z,3.63
2022-09-04T22:56:24.106Z,2.90
2022-09-04T22:59:25.857Z,3.55
2022-09-04T23:02:48.191Z,4.78
2022-09-04T23:05:29.830Z,3.10
2022-09-04T23:13:41.871Z,4.30
2022-09-04T23:13:49.609Z,3.90
2022-09-04T23:14:33.807Z,3.58
2022-09-04T23:17:06.854Z,3.58
2022-09-04T23:22:47.921Z,2.97
2022-09-04T23:26:47.561Z,4.38
2022-09-04T23:26:47.562Z,3.80
2022-09-04T23:29:11.677Z,4.35
2022-09-04T23:31:56.151Z,3.25
2022-09-04T23:35:13.817Z,6.00
2022-09-04T23:38:01.962Z,4.03
2022-09-04T23:40:51.071Z,3.60
2022-09-04T23:43:46.440Z,4.25
2022-09-04T23:46:32.156Z,5.22
2022-09-04T23:49:07.546Z,4.75
2022-09-04T23:51:44.685Z,3.78
2022-09-04T23:54:29.439Z,4.75
2022-09-04T23:57:26.182Z,3.45
